Time;durP1;ratioP1;P1;durP2;ratioP2;P2;SDS_P1;SDS_P2;PMS_P1;PMS_P2;Temp;Humidity;BMP_temperature;BMP_pressure;BME280_temperature;BME280_humidity;BME280_pressure;Samples;Min_cycle;Max_cycle;Signal;HPM_P1;HPM_P2
2023/01/02 00:01:07;;;;;;;8.18;4.50;;;10.70;99.90;;;;;;5028873;28;20100;-72
2023/01/02 00:03:34;;;;;;;8.05;4.45;;;10.70;99.90;;;;;;5032685;28;20100;-71
2023/01/02 00:06:05;;;;;;;9.70;4.60;;;10.70;99.90;;;;;;5024125;28;20164;-72
2023/01/02 00:08:33;;;;;;;7.82;5.00;;;10.70;99.90;;;;;;4992775;28;20358;-73
2023/01/02 00:11:00;;;;;;;7.35;4.70;;;10.70;99.90;;;;;;5000665;28;20442;-73
2023/01/02 00:13:27;;;;;;;8.95;4.60;;;10.60;99.90;;;;;;5031833;28;20041;-74
2023/01/02 00:15:55;;;;;;;7.03;4.35;;;10.60;99.90;;;;;;5032191;28;20132;-74
2023/01/02 00:18:22;;;;;;;8.30;4.70;;;10.50;99.90;;;;;;5028612;28;20057;-73
2023/01/02 00:20:50;;;;;;;7.93;5.18;;;10.50;99.90;;;;;;5026527;28;20052;-71
2023/01/02 00:23:17;;;;;;;9.32;5.22;;;10.40;99.90;;;;;;5030164;28;20353;-74
2023/01/02 00:25:47;;;;;;;8.90;5.78;;;10.40;99.90;;;;;;5031104;28;20049;-73
2023/01/02 00:28:15;;;;;;;9.43;5.18;;;10.40;99.90;;;;;;5029705;28;20038;-73
2023/01/02 00:30:42;;;;;;;11.68;5.40;;;10.40;99.90;;;;;;5029677;28;20055;-73
2023/01/02 00:33:09;;;;;;;8.10;5.00;;;10.30;99.90;;;;;;5029043;28;20087;-73
2023/01/02 00:35:39;;;;;;;9.60;4.65;;;10.30;99.90;;;;;;5027825;28;20139;-73
2023/01/02 00:38:06;;;;;;;7.97;4.85;;;10.20;99.90;;;;;;5028327;28;20547;-73
2023/01/02 00:40:34;;;;;;;8.80;5.40;;;10.20;99.90;;;;;;5028797;28;20167;-74
2023/01/02 00:43:01;;;;;;;10.65;5.82;;;10.20;99.90;;;;;;5028172;28;20583;-73
2023/01/02 00:45:29;;;;;;;9.10;5.43;;;10.20;99.90;;;;;;5007375;28;20046;-70
2023/01/02 00:47:56;;;;;;;9.32;5.50;;;10.20;99.90;;;;;;5023690;28;20547;-71
2023/01/02 00:50:23;;;;;;;9.80;5.40;;;10.20;99.90;;;;;;5028063;28;20551;-70
2023/01/02 00:52:51;;;;;;;12.10;5.30;;;10.30;99.90;;;;;;5029926;28;20495;-72
2023/01/02 00:55:18;;;;;;;7.57;5.03;;;10.30;99.90;;;;;;5013180;28;20486;-74
2023/01/02 00:57:45;;;;;;;12.40;5.90;;;10.20;99.90;;;;;;5013530;28;20045;-72
2023/01/02 01:00:13;;;;;;;12.43;6.70;;;10.20;99.90;;;;;;5011686;28;20037;-72
2023/01/02 01:02:53;;;;;;;12.60;6.30;;;10.30;99.90;;;;;;5018638;28;20488;-72
2023/01/02 01:05:20;;;;;;;9.15;6.07;;;10.30;99.90;;;;;;5029048;28;20481;-71
2023/01/02 01:07:47;;;;;;;10.57;5.60;;;10.40;99.90;;;;;;5023343;28;20108;-72
2023/01/02 01:10:15;;;;;;;9.50;5.32;;;10.40;99.90;;;;;;5004567;28;20109;-72
2023/01/02 01:12:42;;;;;;;9.60;5.97;;;10.40;99.90;;;;;;5018746;28;20119;-71
2023/01/02 01:15:10;;;;;;;9.40;5.35;;;10.50;99.90;;;;;;4992369;28;20066;-71
2023/01/02 01:17:38;;;;;;;8.45;5.05;;;10.50;99.90;;;;;;5008657;28;20530;-72
2023/01/02 01:20:06;;;;;;;11.98;5.15;;;10.50;99.90;;;;;;5027873;28;20546;-72
2023/01/02 01:22:33;;;;;;;8.90;5.38;;;10.50;99.90;;;;;;5030322;28;20045;-71
2023/01/02 01:25:01;;;;;;;8.52;5.03;;;10.60;99.90;;;;;;5032466;28;20128;-72
2023/01/02 01:27:28;;;;;;;7.22;4.85;;;10.60;99.90;;;;;;5033234;28;20068;-75
2023/01/02 01:29:55;;;;;;;10.55;5.18;;;10.60;99.90;;;;;;5018943;28;20041;-73
2023/01/02 01:32:23;;;;;;;10.85;5.30;;;10.60;99.90;;;;;;5032835;28;20118;-73
2023/01/02 01:34:50;;;;;;;8.98;5.35;;;10.60;99.90;;;;;;5029589;28;20066;-72
2023/01/02 01:37:18;;;;;;;9.60;5.38;;;10.70;99.90;;;;;;5015679;28;20461;-71
2023/01/02 01:39:46;;;;;;;9.30;5.35;;;10.70;99.90;;;;;;5008326;28;20111;-72
2023/01/02 01:42:14;;;;;;;9.52;5.50;;;10.70;99.90;;;;;;5016314;28;20527;-73
2023/01/02 01:44:53;;;;;;;9.18;5.22;;;10.70;99.90;;;;;;5035796;28;20125;-72
2023/01/02 01:47:32;;;;;;;8.98;5.00;;;10.70;99.90;;;;;;5011606;28;20442;-72
2023/01/02 01:50:08;;;;;;;9.38;5.05;;;10.70;99.90;;;;;;5031064;28;20595;-73
2023/01/02 01:52:46;;;;;;;9.93;5.10;;;10.70;99.90;;;;;;5032998;28;20126;-74
2023/01/02 01:55:22;;;;;;;7.88;4.85;;;10.80;99.90;;;;;;5034834;28;20049;-73
2023/01/02 01:58:04;;;;;;;8.90;5.15;;;10.80;99.90;;;;;;5030758;28;20045;-71
2023/01/02 02:00:33;;;;;;;9.63;5.07;;;10.70;99.90;;;;;;5031744;28;20409;-73
2023/01/02 02:03:07;;;;;;;9.05;5.30;;;10.80;99.90;;;;;;5028610;28;20554;-73
2023/01/02 02:05:35;;;;;;;7.90;5.00;;;10.80;99.90;;;;;;5021898;28;20053;-72
2023/01/02 02:08:23;;;;;;;10.05;5.10;;;10.80;99.90;;;;;;5033325;28;20053;-72
2023/01/02 02:10:53;;;;;;;7.85;4.78;;;10.70;99.90;;;;;;5011257;28;20137;-73
2023/01/02 02:13:21;;;;;;;8.40;5.15;;;10.70;99.90;;;;;;5020716;28;20460;-73
2023/01/02 02:15:59;;;;;;;9.13;5.30;;;10.60;99.90;;;;;;5029722;28;20076;-73
2023/01/02 02:18:33;;;;;;;10.15;5.30;;;10.60;99.90;;;;;;5004083;28;20090;-73
2023/01/02 02:21:22;;;;;;;8.27;5.10;;;10.60;99.90;;;;;;5026648;28;20420;-71
2023/01/02 02:24:20;;;;;;;8.27;5.30;;;10.50;99.90;;;;;;5018803;28;20038;-72
2023/01/02 02:27:25;;;;;;;9.43;5.80;;;10.50;99.90;;;;;;5027562;28;20128;-73
2023/01/02 02:30:06;;;;;;;10.52;4.88;;;10.50;99.90;;;;;;5005218;28;20498;-72
2023/01/02 02:32:58;;;;;;;6.95;4.43;;;10.50;99.90;;;;;;5045298;28;20061;-73
2023/01/02 02:35:28;;;;;;;7.80;4.93;;;10.50;99.90;;;;;;5032877;28;20049;-72
2023/01/02 02:38:00;;;;;;;9.23;4.97;;;10.50;99.90;;;;;;5021192;28;20368;-73
2023/01/02 02:40:40;;;;;;;;;;;10.40;99.90;;;;;;5019001;28;20072;-73
2023/01/02 02:43:21;;;;;;;7.40;4.35;;;10.40;99.90;;;;;;5022376;28;19925;-72
2023/01/02 02:46:03;;;;;;;9.82;4.78;;;10.40;99.90;;;;;;5027708;28;20081;-73
2023/01/02 02:48:30;;;;;;;8.23;4.40;;;10.40;99.90;;;;;;5010839;28;20053;-73
2023/01/02 02:51:08;;;;;;;8.70;4.63;;;10.40;99.90;;;;;;5028227;28;20049;-73
2023/01/02 02:53:42;;;;;;;8.23;4.60;;;10.40;99.90;;;;;;5027862;28;20768;-73
2023/01/02 02:56:11;;;;;;;8.07;4.60;;;10.50;99.90;;;;;;5031189;28;20108;-72
2023/01/02 02:58:41;;;;;;;7.82;4.97;;;10.50;99.90;;;;;;5032992;28;20460;-72
2023/01/02 03:01:17;;;;;;;7.32;4.72;;;10.50;99.90;;;;;;5030600;28;20500;-71
2023/01/02 03:03:45;;;;;;;7.32;4.88;;;10.50;99.90;;;;;;5023074;28;20045;-72
2023/01/02 03:06:15;;;;;;;8.90;4.53;;;10.50;99.90;;;;;;5015432;28;20124;-71
2023/01/02 03:09:03;;;;;;;7.47;4.35;;;10.60;99.90;;;;;;5030721;28;20050;-72
2023/01/02 03:12:08;;;;;;;7.30;4.30;;;10.50;99.90;;;;;;5033739;28;20090;-73
2023/01/02 03:14:42;;;;;;;6.45;4.28;;;10.50;99.90;;;;;;5027878;28;20116;-73
2023/01/02 03:17:23;;;;;;;7.40;4.60;;;10.50;99.90;;;;;;5009094;28;20547;-72
2023/01/02 03:19:57;;;;;;;8.65;5.10;;;10.50;99.90;;;;;;5031235;28;20575;-73
2023/01/02 03:22:30;;;;;;;6.75;4.15;;;10.60;99.90;;;;;;5028989;28;20129;-71
2023/01/02 03:24:58;;;;;;;7.60;4.65;;;10.60;99.90;;;;;;4996948;28;20046;-73
2023/01/02 03:27:32;;;;;;;8.50;4.47;;;10.50;99.90;;;;;;5026273;28;20492;-72
2023/01/02 03:30:12;;;;;;;9.65;4.72;;;10.60;99.90;;;;;;5032466;28;20052;-73
2023/01/02 03:33:04;;;;;;;10.82;5.47;;;10.50;99.90;;;;;;5031226;28;20053;-73
2023/01/02 03:35:36;;;;;;;9.82;4.72;;;10.60;99.90;;;;;;5022779;28;20095;-74
2023/01/02 03:38:09;;;;;;;8.68;5.13;;;10.50;99.90;;;;;;5018638;28;20050;-71
2023/01/02 03:40:46;;;;;;;7.30;4.35;;;10.60;99.90;;;;;;5014319;28;20477;-73
2023/01/02 03:43:20;;;;;;;6.97;4.55;;;10.50;99.90;;;;;;5024774;28;20492;-73
2023/01/02 03:46:00;;;;;;;8.02;4.70;;;10.50;99.90;;;;;;5018086;28;20649;-74
2023/01/02 03:48:33;;;;;;;7.53;4.97;;;10.50;99.90;;;;;;5030304;28;20483;-73
2023/01/02 03:51:02;;;;;;;10.18;5.65;;;10.50;99.90;;;;;;5031680;28;20360;-73
2023/01/02 03:53:32;;;;;;;9.25;5.18;;;10.50;99.90;;;;;;5022689;28;20060;-73
2023/01/02 03:56:25;;;;;;;9.23;5.00;;;10.50;99.90;;;;;;5013109;28;20103;-73
2023/01/02 03:59:12;;;;;;;9.35;4.60;;;10.50;99.90;;;;;;5025997;28;20124;-73
2023/01/02 04:01:58;;;;;;;8.32;4.70;;;10.50;99.90;;;;;;5012301;28;20092;-74
2023/01/02 04:04:37;;;;;;;8.35;4.65;;;10.50;99.90;;;;;;5018319;28;20445;-73
2023/01/02 04:07:11;;;;;;;8.90;4.60;;;10.50;99.90;;;;;;5013770;28;20048;-73
2023/01/02 04:09:40;;;;;;;8.25;4.90;;;10.50;99.90;;;;;;5012667;28;20355;-72
2023/01/02 04:12:11;;;;;;;8.00;4.72;;;10.50;99.90;;;;;;5019973;28;20061;-73
2023/01/02 04:14:45;;;;;;;8.52;4.68;;;10.50;99.90;;;;;;5023325;28;20096;-72
2023/01/02 04:17:15;;;;;;;8.70;5.22;;;10.50;99.90;;;;;;5020325;28;20056;-71
2023/01/02 04:19:49;;;;;;;8.18;4.40;;;10.50;99.90;;;;;;5028867;28;20049;-71
2023/01/02 04:22:24;;;;;;;9.52;4.78;;;10.50;99.90;;;;;;5030302;28;20445;-73
2023/01/02 04:25:02;;;;;;;8.80;4.72;;;10.60;99.90;;;;;;5028976;28;20060;-73
2023/01/02 04:27:35;;;;;;;9.40;5.20;;;10.60;99.90;;;;;;5012400;28;20476;-72
2023/01/02 04:30:03;;;;;;;9.15;4.93;;;10.60;99.90;;;;;;5021520;28;20522;-72
2023/01/02 04:32:39;;;;;;;9.88;4.00;;;10.60;99.90;;;;;;5019960;28;20033;-73
2023/01/02 04:35:16;;;;;;;8.25;4.88;;;10.50;99.90;;;;;;5026283;28;20495;-71
2023/01/02 04:37:44;;;;;;;8.20;4.93;;;10.50;99.90;;;;;;5010025;28;20411;-73
2023/01/02 04:40:14;;;;;;;9.50;5.75;;;10.50;99.90;;;;;;5008245;28;20069;-73
2023/01/02 04:42:44;;;;;;;8.18;4.78;;;10.50;99.90;;;;;;5027626;28;20557;-71
2023/01/02 04:45:11;;;;;;;7.72;5.00;;;10.50;99.90;;;;;;5026722;28;20479;-73
2023/01/02 04:47:39;;;;;;;9.35;5.38;;;10.50;99.90;;;;;;5028173;28;20061;-73
2023/01/02 04:50:07;;;;;;;8.75;5.35;;;10.50;99.90;;;;;;5024591;28;20038;-72
2023/01/02 04:52:35;;;;;;;8.50;5.15;;;10.50;99.90;;;;;;5027345;28;20049;-72
2023/01/02 04:55:08;;;;;;;8.60;5.28;;;10.50;99.90;;;;;;5028914;28;20128;-72
2023/01/02 04:57:36;;;;;;;10.20;4.75;;;10.50;99.90;;;;;;5031240;28;20050;-73
2023/01/02 05:00:06;;;;;;;7.97;4.75;;;10.40;99.90;;;;;;5013807;28;20104;-72
2023/01/02 05:02:38;;;;;;;9.30;5.15;;;10.40;99.90;;;;;;5021432;28;20049;-73
2023/01/02 05:05:07;;;;;;;8.30;4.78;;;10.40;99.90;;;;;;5029650;28;20389;-73
2023/01/02 05:07:35;;;;;;;8.82;5.47;;;10.40;99.90;;;;;;5009576;28;20038;-72
2023/01/02 05:10:04;;;;;;;8.27;5.38;;;10.40;99.90;;;;;;5021290;28;20439;-71
2023/01/02 05:12:35;;;;;;;8.18;5.30;;;10.40;99.90;;;;;;5023336;28;20042;-72
2023/01/02 05:15:05;;;;;;;9.90;5.68;;;10.40;99.90;;;;;;5014405;28;20124;-72
2023/01/02 05:17:40;;;;;;;9.25;5.00;;;10.30;99.90;;;;;;5009135;28;20038;-71
2023/01/02 05:20:10;;;;;;;9.32;5.95;;;10.30;99.90;;;;;;5021497;28;20037;-72
2023/01/02 05:25:25;;;;;;;9.38;5.68;;;10.30;99.90;;;;;;5046126;28;20439;-72
2023/01/02 05:27:53;;;;;;;9.30;5.70;;;10.20;99.90;;;;;;5027301;28;20079;-74
2023/01/02 05:30:21;;;;;;;10.23;5.22;;;10.20;99.90;;;;;;5018947;28;20077;-72
2023/01/02 05:32:49;;;;;;;7.78;4.93;;;10.20;99.90;;;;;;5011802;28;20121;-72
2023/01/02 05:35:16;;;;;;;10.48;5.85;;;10.20;99.90;;;;;;5026400;28;20108;-72
2023/01/02 05:37:44;;;;;;;13.30;6.20;;;10.20;99.90;;;;;;5021897;28;20455;-72
2023/01/02 05:40:12;;;;;;;11.98;6.53;;;10.20;99.90;;;;;;4993428;28;20491;-73
2023/01/02 05:42:39;;;;;;;10.07;6.45;;;10.20;99.90;;;;;;5026784;28;20053;-71
2023/01/02 05:45:10;;;;;;;9.82;6.03;;;10.20;99.90;;;;;;5029409;28;20084;-71
2023/01/02 05:47:37;;;;;;;7.83;5.33;;;10.20;99.90;;;;;;5026802;28;20411;-72
2023/01/02 05:50:05;;;;;;;8.38;5.15;;;10.20;99.90;;;;;;5022615;28;20385;-72
2023/01/02 05:52:32;;;;;;;10.75;5.57;;;10.20;99.90;;;;;;5022244;28;20095;-72
2023/01/02 05:55:00;;;;;;;9.68;5.00;;;10.20;99.90;;;;;;5025464;28;20099;-74
2023/01/02 05:57:27;;;;;;;10.00;5.32;;;10.20;99.90;;;;;;5023983;28;20064;-74
2023/01/02 05:59:54;;;;;;;9.85;5.07;;;10.20;99.90;;;;;;5027491;28;20142;-73
2023/01/02 06:02:21;;;;;;;8.07;5.10;;;10.20;99.90;;;;;;5022725;28;20557;-73
2023/01/02 06:04:49;;;;;;;7.30;5.05;;;10.20;99.90;;;;;;5009849;28;20456;-74
2023/01/02 06:07:17;;;;;;;9.50;5.22;;;10.20;99.90;;;;;;5002609;28;20057;-72
2023/01/02 06:09:44;;;;;;;8.77;5.00;;;10.20;99.90;;;;;;5036367;28;20045;-73
2023/01/02 06:12:11;;;;;;;11.43;5.88;;;10.20;99.90;;;;;;5037806;28;20045;-72
2023/01/02 06:14:38;;;;;;;9.75;4.95;;;10.20;99.90;;;;;;5036029;28;20041;-73
2023/01/02 06:17:06;;;;;;;8.77;5.45;;;10.20;99.90;;;;;;5034057;28;20056;-70
2023/01/02 06:19:33;;;;;;;10.15;5.38;;;10.30;99.90;;;;;;5035526;28;20132;-71
2023/01/02 06:22:00;;;;;;;10.68;6.60;;;10.30;99.90;;;;;;5033387;28;20396;-72
2023/01/02 06:24:27;;;;;;;10.07;6.47;;;10.30;99.90;;;;;;5016334;28;20034;-72
2023/01/02 06:26:55;;;;;;;10.20;5.70;;;10.30;99.90;;;;;;5033006;28;20076;-72
2023/01/02 06:29:22;;;;;;;9.05;5.10;;;10.30;99.90;;;;;;5016277;28;20037;-73
2023/01/02 06:31:49;;;;;;;8.13;5.20;;;10.30;99.90;;;;;;5037849;28;20049;-73
2023/01/02 06:34:18;;;;;;;11.73;5.82;;;10.30;99.90;;;;;;5035943;28;20148;-72
2023/01/02 06:36:45;;;;;;;9.05;4.97;;;10.40;99.90;;;;;;5032712;28;20049;-72
2023/01/02 06:39:13;;;;;;;13.70;4.97;;;10.40;99.90;;;;;;5035208;28;20049;-74
2023/01/02 06:41:40;;;;;;;8.10;4.85;;;10.40;99.90;;;;;;5041529;28;20057;-74
2023/01/02 06:44:11;;;;;;;9.00;4.60;;;10.40;99.90;;;;;;5035752;28;20059;-74
2023/01/02 06:46:38;;;;;;;7.18;4.40;;;10.40;99.90;;;;;;5026534;28;20053;-73
2023/01/02 06:49:06;;;;;;;10.20;5.03;;;10.40;99.90;;;;;;5031705;28;20041;-73
2023/01/02 06:51:33;;;;;;;7.60;4.70;;;10.40;99.90;;;;;;5034149;28;20449;-74
2023/01/02 06:54:00;;;;;;;8.85;5.22;;;10.40;99.90;;;;;;5031621;28;20467;-73
2023/01/02 06:56:27;;;;;;;9.55;5.05;;;10.40;99.90;;;;;;5032675;28;20044;-73
2023/01/02 06:58:55;;;;;;;8.55;4.97;;;10.40;99.90;;;;;;5032415;28;20045;-71
2023/01/02 07:01:22;;;;;;;10.05;4.80;;;10.40;99.90;;;;;;5026264;28;20052;-73
2023/01/02 07:03:50;;;;;;;8.23;4.38;;;10.30;99.90;;;;;;5014048;28;20050;-72
2023/01/02 07:06:20;;;;;;;8.10;4.80;;;10.30;99.90;;;;;;5031045;28;20441;-72
2023/01/02 07:08:48;;;;;;;9.27;5.05;;;10.30;99.90;;;;;;5030088;28;20042;-72
2023/01/02 07:11:19;;;;;;;9.60;4.82;;;10.30;99.90;;;;;;5031377;28;20524;-72
2023/01/02 07:13:49;;;;;;;9.70;5.87;;;10.30;99.90;;;;;;5032879;28;20073;-71
2023/01/02 07:16:19;;;;;;;8.68;4.70;;;10.40;99.90;;;;;;5030720;28;20053;-72
2023/01/02 07:18:46;;;;;;;9.02;4.75;;;10.30;99.90;;;;;;5013866;28;20080;-72
2023/01/02 07:21:19;;;;;;;8.50;4.97;;;10.40;99.90;;;;;;5013635;28;20543;-72
2023/01/02 07:23:46;;;;;;;9.23;4.95;;;10.40;99.90;;;;;;5031654;28;20045;-73
2023/01/02 07:26:13;;;;;;;8.60;4.45;;;10.40;99.90;;;;;;5015494;28;20068;-73
2023/01/02 07:28:41;;;;;;;10.93;5.00;;;10.40;99.90;;;;;;5036612;28;20076;-73
2023/01/02 07:31:13;;;;;;;10.77;5.10;;;10.40;99.90;;;;;;5032570;28;20483;-72
2023/01/02 07:33:41;;;;;;;10.43;4.55;;;10.40;99.90;;;;;;5033808;28;20041;-72
2023/01/02 07:36:13;;;;;;;7.75;4.75;;;10.40;99.90;;;;;;5032323;28;20046;-72
2023/01/02 07:38:41;;;;;;;9.48;4.78;;;10.40;99.90;;;;;;5033047;28;20061;-73
2023/01/02 07:41:17;;;;;;;12.55;5.05;;;10.40;99.90;;;;;;5017203;28;20056;-72
2023/01/02 07:43:45;;;;;;;8.55;5.20;;;10.50;99.90;;;;;;5035789;28;20033;-73
2023/01/02 07:46:15;;;;;;;11.50;4.68;;;10.50;99.90;;;;;;5001916;28;20038;-72
2023/01/02 07:48:43;;;;;;;8.32;4.90;;;10.50;99.90;;;;;;5032215;28;20037;-72
2023/01/02 07:51:11;;;;;;;11.43;5.03;;;10.50;99.90;;;;;;5032833;28;20578;-75
2023/01/02 07:53:40;;;;;;;8.63;5.13;;;10.50;99.90;;;;;;5032860;28;20049;-73
2023/01/02 07:56:08;;;;;;;7.53;4.85;;;10.60;99.90;;;;;;5032536;28;20042;-73
2023/01/02 07:58:36;;;;;;;8.30;4.50;;;10.50;99.90;;;;;;5031965;28;20140;-72
2023/01/02 08:01:08;;;;;;;10.38;4.72;;;10.60;99.90;;;;;;5029928;28;20460;-73
2023/01/02 08:03:36;;;;;;;7.57;4.82;;;10.60;99.90;;;;;;5025739;28;20049;-74
2023/01/02 08:06:05;;;;;;;8.98;4.68;;;10.60;99.90;;;;;;5030237;28;20040;-71
2023/01/02 08:08:34;;;;;;;10.82;5.63;;;10.60;99.90;;;;;;5007496;28;20049;-73
2023/01/02 08:11:06;;;;;;;8.52;4.70;;;10.60;99.90;;;;;;5030206;28;20112;-72
2023/01/02 08:13:34;;;;;;;8.93;4.68;;;10.60;99.90;;;;;;5030536;28;20052;-72
2023/01/02 08:16:16;;;;;;;7.50;4.50;;;10.60;99.90;;;;;;5030009;28;20108;-72
2023/01/02 08:18:45;;;;;;;8.50;5.30;;;10.60;99.90;;;;;;5024977;28;20056;-71
2023/01/02 08:21:13;;;;;;;9.98;5.43;;;10.70;99.90;;;;;;5028773;28;20132;-72
2023/01/02 08:23:40;;;;;;;8.95;5.53;;;10.70;99.90;;;;;;5030088;28;20038;-70
2023/01/02 08:26:09;;;;;;;8.35;4.93;;;10.70;99.90;;;;;;5022474;28;20044;-71
2023/01/02 08:28:38;;;;;;;7.40;5.22;;;10.80;99.90;;;;;;5011894;28;20046;-71
2023/01/02 08:31:15;;;;;;;10.82;4.70;;;10.90;99.90;;;;;;5015370;28;20136;-73
2023/01/02 08:33:43;;;;;;;8.40;4.72;;;10.90;99.90;;;;;;5022287;28;20255;-72
2023/01/02 08:36:10;;;;;;;12.50;4.93;;;11.00;99.90;;;;;;5025240;28;20084;-73
2023/01/02 08:38:38;;;;;;;10.15;5.35;;;11.00;99.90;;;;;;5025590;28;20049;-71
2023/01/02 08:41:05;;;;;;;8.80;5.40;;;11.10;99.90;;;;;;5027738;28;20076;-71
2023/01/02 08:43:34;;;;;;;13.57;6.03;;;11.10;99.90;;;;;;5028163;28;20528;-72
2023/01/02 08:46:06;;;;;;;21.40;11.73;;;11.20;99.90;;;;;;5015660;28;20049;-73
2023/01/02 08:48:34;;;;;;;15.55;6.82;;;11.30;99.90;;;;;;5020231;28;20041;-71
2023/01/02 08:51:03;;;;;;;9.02;5.10;;;11.30;99.90;;;;;;5010990;28;20045;-72
2023/01/02 08:53:30;;;;;;;7.63;4.47;;;11.40;99.90;;;;;;5022534;28;20038;-71
2023/01/02 08:56:22;;;;;;;7.05;4.40;;;11.40;99.90;;;;;;5007073;28;20045;-72
2023/01/02 08:58:55;;;;;;;11.45;5.18;;;11.50;99.90;;;;;;5027354;28;20049;-71
2023/01/02 09:01:24;;;;;;;11.25;5.47;;;11.60;99.90;;;;;;5029404;28;20038;-72
2023/01/02 09:03:53;;;;;;;13.57;5.20;;;11.70;99.90;;;;;;5018096;28;20042;-71
2023/01/02 09:06:22;;;;;;;8.23;5.22;;;11.70;99.90;;;;;;5010904;28;20061;-71
2023/01/02 09:08:54;;;;;;;12.02;5.22;;;11.90;99.90;;;;;;5023694;28;20065;-70
2023/01/02 09:11:25;;;;;;;10.25;5.07;;;11.90;99.90;;;;;;5018365;28;20067;-73
2023/01/02 09:13:53;;;;;;;7.07;4.47;;;11.90;99.90;;;;;;5027519;28;20455;-72
2023/01/02 09:16:21;;;;;;;7.97;4.90;;;12.00;99.90;;;;;;5021568;28;20034;-71
2023/01/02 09:18:49;;;;;;;11.13;5.07;;;12.10;99.90;;;;;;5023572;28;20507;-73
2023/01/02 09:21:17;;;;;;;10.35;5.60;;;12.20;99.90;;;;;;5017551;28;20050;-72
2023/01/02 09:23:45;;;;;;;10.38;5.70;;;12.30;99.90;;;;;;5029809;28;20474;-72
2023/01/02 09:26:13;;;;;;;11.27;6.93;;;12.30;99.90;;;;;;5027548;28;20140;-71
2023/01/02 09:28:41;;;;;;;10.13;5.63;;;12.40;99.90;;;;;;5021059;28;20053;-72
2023/01/02 09:31:11;;;;;;;14.07;8.98;;;12.50;99.90;;;;;;5023904;28;20392;-72
2023/01/02 09:33:43;;;;;;;19.45;10.75;;;12.60;99.90;;;;;;4996420;28;20053;-71
2023/01/02 09:36:13;;;;;;;12.70;8.02;;;12.70;99.90;;;;;;5012118;28;20042;-72
2023/01/02 09:38:41;;;;;;;9.27;5.00;;;12.70;99.90;;;;;;5014853;28;20045;-73
2023/01/02 09:41:27;;;;;;;14.90;7.30;;;12.70;99.90;;;;;;5019739;28;20042;-71
2023/01/02 09:44:12;;;;;;;12.98;7.60;;;12.80;99.90;;;;;;5013245;28;20248;-73
2023/01/02 09:46:48;;;;;;;11.02;5.70;;;13.00;99.90;;;;;;5028305;28;20038;-73
2023/01/02 09:49:20;;;;;;;10.35;5.15;;;13.10;99.90;;;;;;5021702;28;20511;-72
2023/01/02 09:51:48;;;;;;;7.97;4.63;;;13.20;99.90;;;;;;5027977;28;20483;-71
2023/01/02 09:54:28;;;;;;;8.25;4.90;;;13.20;99.90;;;;;;5030205;28;20455;-73
2023/01/02 09:57:14;;;;;;;7.88;4.32;;;13.30;99.90;;;;;;5033342;28;20053;-72
2023/01/02 09:59:55;;;;;;;8.05;4.72;;;13.50;99.90;;;;;;5007800;28;20053;-73
2023/01/02 10:02:39;;;;;;;10.80;4.80;;;13.60;99.90;;;;;;5035421;28;20471;-71
2023/01/02 10:05:33;;;;;;;7.57;4.22;;;13.70;99.90;;;;;;5015370;28;20115;-71
2023/01/02 10:08:25;;;;;;;7.50;4.15;;;13.80;99.90;;;;;;5031679;28;20538;-71
2023/01/02 10:11:20;;;;;;;6.97;4.15;;;13.80;99.90;;;;;;5030293;28;20500;-72
2023/01/02 10:14:22;;;;;;;8.15;4.22;;;14.00;99.90;;;;;;5030430;28;20117;-72
2023/01/02 10:17:04;;;;;;;8.95;5.03;;;14.20;99.90;;;;;;5024893;28;20038;-71
2023/01/02 10:19:47;;;;;;;10.88;5.22;;;14.20;99.90;;;;;;5029466;28;20140;-71
2023/01/02 10:22:21;;;;;;;13.57;7.47;;;14.30;99.90;;;;;;5024371;28;20037;-72
2023/01/02 10:25:00;;;;;;;8.40;5.18;;;14.30;99.90;;;;;;5006312;28;20137;-72
2023/01/02 10:27:37;;;;;;;9.40;5.10;;;14.40;99.90;;;;;;5025195;28;20480;-72
2023/01/02 10:30:19;;;;;;;7.13;3.92;;;14.40;99.90;;;;;;4987568;28;20099;-71
2023/01/02 10:33:09;;;;;;;8.25;4.25;;;14.50;99.90;;;;;;5030309;28;20053;-72
2023/01/02 10:36:17;;;;;;;7.72;4.28;;;14.50;99.90;;;;;;5024269;28;20061;-72
2023/01/02 10:38:44;;;;;;;8.60;4.47;;;14.60;99.90;;;;;;5020159;28;20436;-72
2023/01/02 10:41:11;;;;;;;7.10;4.38;;;14.60;99.90;;;;;;5028062;28;20054;-73
2023/01/02 10:43:39;;;;;;;9.18;4.22;;;14.70;99.90;;;;;;5032751;28;20419;-72
2023/01/02 10:46:06;;;;;;;13.07;4.72;;;14.70;99.90;;;;;;5028403;28;20500;-72
2023/01/02 10:48:37;;;;;;;9.32;4.50;;;14.80;99.90;;;;;;5028979;28;20049;-72
2023/01/02 10:51:12;;;;;;;8.30;4.75;;;15.00;99.90;;;;;;5031524;28;20497;-73
2023/01/02 10:53:39;;;;;;;9.85;4.78;;;15.20;99.90;;;;;;5033888;28;20485;-73
2023/01/02 10:56:19;;;;;;;8.55;4.97;;;15.50;99.90;;;;;;5034753;28;20071;-73
2023/01/02 10:58:49;;;;;;;6.95;4.07;;;15.70;99.90;;;;;;5025824;28;20045;-72
2023/01/02 11:01:20;;;;;;;8.98;4.18;;;15.90;99.90;;;;;;5030760;28;20500;-73
2023/01/02 11:04:08;;;;;;;7.38;4.38;;;16.00;99.90;;;;;;5030044;28;20409;-71
2023/01/02 11:06:48;;;;;;;10.40;4.22;;;16.30;99.90;;;;;;5036817;28;20038;-71
2023/01/02 11:09:28;;;;;;;7.10;4.10;;;16.50;99.90;;;;;;5036545;28;20445;-73
2023/01/02 11:11:58;;;;;;;6.32;4.00;;;16.70;99.90;;;;;;5035760;28;20056;-73
2023/01/02 11:14:31;;;;;;;9.15;4.68;;;16.90;99.90;;;;;;5031111;28;20045;-71
2023/01/02 11:17:13;;;;;;;7.45;4.28;;;17.00;99.90;;;;;;5025682;28;20044;-71
2023/01/02 11:19:44;;;;;;;7.28;4.50;;;17.00;99.90;;;;;;5030135;28;20392;-72
2023/01/02 11:22:13;;;;;;;7.53;4.75;;;17.00;99.90;;;;;;5007741;28;20069;-70
2023/01/02 11:24:57;;;;;;;10.80;5.15;;;17.00;99.90;;;;;;5013184;28;20056;-71
2023/01/02 11:27:32;;;;;;;9.88;5.07;;;17.10;99.90;;;;;;5032751;28;20496;-74
2023/01/02 11:30:01;;;;;;;7.25;4.53;;;17.50;99.90;;;;;;5032420;28;20033;-73
2023/01/02 11:32:37;;;;;;;9.18;4.93;;;18.10;99.90;;;;;;5029709;28;20556;-71
2023/01/02 11:35:25;;;;;;;7.60;4.85;;;18.80;99.90;;;;;;5026617;28;20155;-73
2023/01/02 11:37:54;;;;;;;8.18;5.00;;;18.90;99.90;;;;;;5029269;28;20057;-73
2023/01/02 11:40:27;;;;;;;8.02;4.70;;;19.70;99.90;;;;;;5031543;28;20057;-74
2023/01/02 11:45:48;;;;;;;9.45;5.07;;;20.40;99.90;;;;;;5033053;28;20051;-72
2023/01/02 11:48:20;;;;;;;9.55;5.13;;;20.70;99.90;;;;;;5032288;28;20041;-72
2023/01/02 11:50:49;;;;;;;7.53;4.97;;;20.30;99.90;;;;;;5033759;28;20433;-72
2023/01/02 11:53:26;;;;;;;7.45;5.05;;;19.80;99.90;;;;;;5029224;28;20046;-72
2023/01/02 11:56:01;;;;;;;8.20;4.88;;;19.90;99.90;;;;;;5031419;28;20063;-73
2023/01/02 11:59:08;;;;;;;6.78;4.55;;;20.20;99.90;;;;;;5030881;28;20064;-73
2023/01/02 12:01:47;;;;;;;8.27;5.85;;;21.20;99.90;;;;;;5024096;28;20475;-73
2023/01/02 12:04:15;;;;;;;10.35;6.80;;;22.40;99.90;;;;;;5033306;28;20531;-73
2023/01/02 12:06:59;;;;;;;6.38;4.45;;;23.20;99.90;;;;;;5031821;28;20461;-71
2023/01/02 12:10:07;;;;;;;6.93;5.05;;;23.60;99.90;;;;;;5024209;28;20539;-71
2023/01/02 12:13:10;;;;;;;7.70;4.88;;;23.40;99.90;;;;;;5022379;28;20057;-72
2023/01/02 12:15:37;;;;;;;8.35;4.55;;;22.90;99.90;;;;;;5027857;28;20137;-72
2023/01/02 12:18:19;;;;;;;6.53;4.28;;;22.90;99.90;;;;;;5027098;28;20033;-72
2023/01/02 12:21:04;;;;;;;8.23;4.57;;;22.70;99.90;;;;;;5027844;28;20101;-73
2023/01/02 12:24:00;;;;;;;6.43;4.70;;;22.30;99.90;;;;;;5011541;28;20053;-74
2023/01/02 12:26:48;;;;;;;8.40;4.43;;;21.30;99.90;;;;;;5026783;28;20084;-72
2023/01/02 12:29:26;;;;;;;6.97;4.50;;;20.70;99.90;;;;;;5027675;28;20044;-72
2023/01/02 12:32:39;;;;;;;7.35;4.57;;;20.60;99.90;;;;;;5028862;28;20037;-72
2023/01/02 12:35:46;;;;;;;7.90;5.03;;;20.70;99.90;;;;;;5026538;28;20052;-73
2023/01/02 12:38:30;;;;;;;7.85;4.57;;;20.60;99.90;;;;;;5025714;28;20041;-71
2023/01/02 12:41:22;;;;;;;6.88;4.68;;;20.00;99.90;;;;;;5028013;28;20061;-72
2023/01/02 12:44:20;;;;;;;6.95;4.72;;;20.30;99.90;;;;;;5027154;28;20380;-72
2023/01/02 12:47:20;;;;;;;8.35;4.60;;;21.00;99.90;;;;;;5010101;28;20049;-72
2023/01/02 12:50:14;;;;;;;7.03;3.92;;;21.00;99.90;;;;;;5022682;28;20077;-72
2023/01/02 12:53:03;;;;;;;9.35;4.60;;;20.70;99.90;;;;;;5019578;28;20453;-72
2023/01/02 12:55:44;;;;;;;7.25;4.57;;;20.40;99.90;;;;;;5025140;28;20465;-73
2023/01/02 12:58:41;;;;;;;8.63;5.28;;;20.40;99.90;;;;;;5029337;28;20046;-73
2023/01/02 13:01:20;;;;;;;8.57;4.63;;;21.20;99.90;;;;;;5017993;28;20064;-73
2023/01/02 13:04:17;;;;;;;7.38;4.32;;;20.90;99.90;;;;;;5008111;28;20065;-72
2023/01/02 13:07:06;;;;;;;8.63;4.95;;;20.00;99.90;;;;;;5028740;28;20041;-71
2023/01/02 13:09:42;;;;;;;8.23;4.82;;;19.50;99.90;;;;;;5026710;28;20056;-71
2023/01/02 13:12:15;;;;;;;9.15;5.57;;;19.00;99.90;;;;;;5030772;28;20083;-75
2023/01/02 13:14:57;;;;;;;7.57;4.97;;;18.80;99.90;;;;;;5012164;28;20050;-73
2023/01/02 13:17:43;;;;;;;;;;;18.40;99.90;;;;;;5032043;28;20091;-72
2023/01/02 13:20:19;;;;;;;8.70;4.72;;;18.10;99.90;;;;;;5026075;28;19925;-72
2023/01/02 13:23:08;;;;;;;8.23;4.72;;;17.60;99.90;;;;;;5030550;28;20047;-72
2023/01/02 13:25:41;;;;;;;7.65;4.50;;;17.50;99.90;;;;;;5036814;28;20041;-72